sensor_id;sensor_type;location;lat;lon;timestamp;pressure;altitude;pressure_sealevel;temperature;humidity
72086;BME280;64750;52.134;5.424;2023-12-04T00:02:23;101531.44;;;1.47;93.33
72086;BME280;64750;52.134;5.424;2023-12-04T00:04:50;101535.75;;;1.46;93.02
72086;BME280;64750;52.134;5.424;2023-12-04T00:07:17;101533.19;;;1.45;92.65
72086;BME280;64750;52.134;5.424;2023-12-04T00:09:43;101527.13;;;1.46;92.75
72086;BME280;64750;52.134;5.424;2023-12-04T00:12:10;101529.69;;;1.46;93.28
72086;BME280;64750;52.134;5.424;2023-12-04T00:14:36;101527.13;;;1.46;92.55
72086;BME280;64750;52.134;5.424;2023-12-04T00:17:03;101526.28;;;1.45;92.86
72086;BME280;64750;52.134;5.424;2023-12-04T00:19:29;101525.41;;;1.43;93.19
72086;BME280;64750;52.134;5.424;2023-12-04T00:21:56;101515.94;;;1.44;92.68
72086;BME280;64750;52.134;5.424;2023-12-04T00:24:23;101511.59;;;1.44;92.66
72086;BME280;64750;52.134;5.424;2023-12-04T00:26:49;101521.09;;;1.45;92.62
72086;BME280;64750;52.134;5.424;2023-12-04T00:29:16;101511.56;;;1.46;92.74
72086;BME280;64750;52.134;5.424;2023-12-04T00:31:42;101512.41;;;1.48;92.87
72086;BME280;64750;52.134;5.424;2023-12-04T00:34:09;101505.53;;;1.47;92.42
72086;BME280;64750;52.134;5.424;2023-12-04T00:36:35;101510.69;;;1.48;92.94
72086;BME280;64750;52.134;5.424;2023-12-04T00:39:02;101500.31;;;1.50;92.67
72086;BME280;64750;52.134;5.424;2023-12-04T00:41:30;101495.16;;;1.47;92.41
72086;BME280;64750;52.134;5.424;2023-12-04T00:43:57;101487.38;;;1.48;92.40
72086;BME280;64750;52.134;5.424;2023-12-04T00:46:23;101491.69;;;1.48;92.72
72086;BME280;64750;52.134;5.424;2023-12-04T00:48:50;101496.88;;;1.48;92.38
72086;BME280;64750;52.134;5.424;2023-12-04T00:51:17;101494.31;;;1.46;92.83
72086;BME280;64750;52.134;5.424;2023-12-04T00:53:43;101484.81;;;1.45;92.22
72086;BME280;64750;52.134;5.424;2023-12-04T00:56:10;101484.78;;;1.47;92.18
72086;BME280;64750;52.134;5.424;2023-12-04T00:58:37;101482.22;;;1.47;92.73
72086;BME280;64750;52.134;5.424;2023-12-04T01:01:03;101478.78;;;1.46;92.90
72086;BME280;64750;52.134;5.424;2023-12-04T01:03:30;101481.38;;;1.46;92.50
72086;BME280;64750;52.134;5.424;2023-12-04T01:05:59;101481.38;;;1.46;93.29
72086;BME280;64750;52.134;5.424;2023-12-04T01:08:26;101475.31;;;1.44;92.71
72086;BME280;64750;52.134;5.424;2023-12-04T01:10:52;101478.78;;;1.46;93.30
72086;BME280;64750;52.134;5.424;2023-12-04T01:13:19;101470.13;;;1.46;92.65
72086;BME280;64750;52.134;5.424;2023-12-04T01:15:45;101475.31;;;1.46;93.33
72086;BME280;64750;52.134;5.424;2023-12-04T01:18:13;101475.28;;;1.49;92.66
72086;BME280;64750;52.134;5.424;2023-12-04T01:20:40;101470.97;;;1.48;93.32
72086;BME280;64750;52.134;5.424;2023-12-04T01:23:06;101471.81;;;1.48;92.76
72086;BME280;64750;52.134;5.424;2023-12-04T01:25:33;101469.25;;;1.47;92.93
72086;BME280;64750;52.134;5.424;2023-12-04T01:27:59;101462.34;;;1.49;92.86
72086;BME280;64750;52.134;5.424;2023-12-04T01:30:26;101453.69;;;1.50;93.28
72086;BME280;64750;52.134;5.424;2023-12-04T01:32:52;101451.09;;;1.50;92.67
72086;BME280;64750;52.134;5.424;2023-12-04T01:35:19;101457.16;;;1.49;93.28
72086;BME280;64750;52.134;5.424;2023-12-04T01:37:45;101447.66;;;1.48;93.23
72086;BME280;64750;52.134;5.424;2023-12-04T01:40:12;101449.41;;;1.47;93.46
72086;BME280;64750;52.134;5.424;2023-12-04T01:42:38;101439.03;;;1.49;92.93
72086;BME280;64750;52.134;5.424;2023-12-04T01:45:05;101431.25;;;1.49;92.76
72086;BME280;64750;52.134;5.424;2023-12-04T01:47:32;101447.63;;;1.50;93.01
72086;BME280;64750;52.134;5.424;2023-12-04T01:49:59;101434.66;;;1.51;92.91
72086;BME280;64750;52.134;5.424;2023-12-04T01:52:25;101439.84;;;1.51;93.54
72086;BME280;64750;52.134;5.424;2023-12-04T01:54:52;101429.47;;;1.51;93.00
72086;BME280;64750;52.134;5.424;2023-12-04T01:57:19;101431.25;;;1.49;93.73
72086;BME280;64750;52.134;5.424;2023-12-04T01:59:46;101427.78;;;1.48;93.26
72086;BME280;64750;52.134;5.424;2023-12-04T02:02:13;101437.28;;;1.50;93.03
72086;BME280;64750;52.134;5.424;2023-12-04T02:04:40;101431.28;;;1.47;93.24
72086;BME280;64750;52.134;5.424;2023-12-04T02:07:07;101422.63;;;1.47;93.11
72086;BME280;64750;52.134;5.424;2023-12-04T02:09:37;101425.19;;;1.50;93.02
72086;BME280;64750;52.134;5.424;2023-12-04T02:12:04;101418.28;;;1.51;93.28
72086;BME280;64750;52.134;5.424;2023-12-04T02:14:31;101413.97;;;1.50;92.83
72086;BME280;64750;52.134;5.424;2023-12-04T02:16:58;101409.66;;;1.50;92.67
72086;BME280;64750;52.134;5.424;2023-12-04T02:19:26;101407.06;;;1.50;92.42
72086;BME280;64750;52.134;5.424;2023-12-04T02:21:53;101400.16;;;1.49;92.70
72086;BME280;64750;52.134;5.424;2023-12-04T02:24:19;101405.34;;;1.49;92.86
72086;BME280;64750;52.134;5.424;2023-12-04T02:26:56;101402.75;;;1.49;92.99
72086;BME280;64750;52.134;5.424;2023-12-04T02:29:31;101403.63;;;1.48;93.09
72086;BME280;64750;52.134;5.424;2023-12-04T02:32:01;101401.91;;;1.47;92.09
72086;BME280;64750;52.134;5.424;2023-12-04T02:34:29;101401.06;;;1.46;92.76
72086;BME280;64750;52.134;5.424;2023-12-04T02:36:59;101386.41;;;1.44;92.43
72086;BME280;64750;52.134;5.424;2023-12-04T02:39:27;101391.53;;;1.47;92.49
72086;BME280;64750;52.134;5.424;2023-12-04T02:41:54;101384.63;;;1.46;92.20
72086;BME280;64750;52.134;5.424;2023-12-04T02:44:20;101372.53;;;1.48;92.10
72086;BME280;64750;52.134;5.424;2023-12-04T02:46:47;101372.53;;;1.48;92.55
72086;BME280;64750;52.134;5.424;2023-12-04T02:49:13;101364.78;;;1.46;92.64
72086;BME280;64750;52.134;5.424;2023-12-04T02:51:40;101363.03;;;1.47;92.30
72086;BME280;64750;52.134;5.424;2023-12-04T02:54:07;101357.03;;;1.46;92.35
72086;BME280;64750;52.134;5.424;2023-12-04T02:56:34;101363.03;;;1.47;92.01
72086;BME280;64750;52.134;5.424;2023-12-04T02:59:00;101344.09;;;1.45;92.01
72086;BME280;64750;52.134;5.424;2023-12-04T03:01:27;101350.09;;;1.47;92.59
72086;BME280;64750;52.134;5.424;2023-12-04T03:03:53;101339.72;;;1.47;92.63
72086;BME280;64750;52.134;5.424;2023-12-04T03:06:20;101343.19;;;1.46;92.22
72086;BME280;64750;52.134;5.424;2023-12-04T03:08:46;101344.06;;;1.46;91.66
72086;BME280;64750;52.134;5.424;2023-12-04T03:11:13;101340.59;;;1.46;92.14
72086;BME280;64750;52.134;5.424;2023-12-04T03:13:39;101335.47;;;1.43;91.77
72086;BME280;64750;52.134;5.424;2023-12-04T03:16:06;101325.97;;;1.45;91.55
72086;BME280;64750;52.134;5.424;2023-12-04T03:18:33;101331.97;;;1.47;91.66
72086;BME280;64750;52.134;5.424;2023-12-04T03:20:59;101320.78;;;1.45;91.96
72086;BME280;64750;52.134;5.424;2023-12-04T03:23:26;101324.22;;;1.45;91.77
72086;BME280;64750;52.134;5.424;2023-12-04T03:25:52;101323.34;;;1.46;91.83
72086;BME280;64750;52.134;5.424;2023-12-04T03:28:19;101312.97;;;1.46;91.89
72086;BME280;64750;52.134;5.424;2023-12-04T03:30:45;101312.97;;;1.46;91.44
72086;BME280;64750;52.134;5.424;2023-12-04T03:33:12;101301.75;;;1.46;91.69
72086;BME280;64750;52.134;5.424;2023-12-04T03:35:39;101302.66;;;1.45;91.62
72086;BME280;64750;52.134;5.424;2023-12-04T03:38:06;101302.66;;;1.43;91.03
72086;BME280;64750;52.134;5.424;2023-12-04T03:40:32;101301.81;;;1.43;90.91
72086;BME280;64750;52.134;5.424;2023-12-04T03:42:59;101288.84;;;1.43;91.64
72086;BME280;64750;52.134;5.424;2023-12-04T03:45:26;101293.16;;;1.44;91.14
72086;BME280;64750;52.134;5.424;2023-12-04T03:47:52;101288.81;;;1.44;90.76
72086;BME280;64750;52.134;5.424;2023-12-04T03:50:19;101285.41;;;1.44;91.16
72086;BME280;64750;52.134;5.424;2023-12-04T03:52:46;101288.84;;;1.43;91.10
72086;BME280;64750;52.134;5.424;2023-12-04T03:55:12;101278.50;;;1.43;91.35
72086;BME280;64750;52.134;5.424;2023-12-04T03:57:39;101277.63;;;1.44;90.81
72086;BME280;64750;52.134;5.424;2023-12-04T04:00:09;101269.81;;;1.45;90.62
72086;BME280;64750;52.134;5.424;2023-12-04T04:02:37;101269.84;;;1.44;90.33
72086;BME280;64750;52.134;5.424;2023-12-04T04:05:04;101263.78;;;1.43;90.58
72086;BME280;64750;52.134;5.424;2023-12-04T04:07:31;101262.91;;;1.44;90.40
72086;BME280;64750;52.134;5.424;2023-12-04T04:09:57;101256.03;;;1.43;90.06
72086;BME280;64750;52.134;5.424;2023-12-04T04:12:24;101257.75;;;1.44;89.99
72086;BME280;64750;52.134;5.424;2023-12-04T04:14:50;101249.94;;;1.46;90.02
72086;BME280;64750;52.134;5.424;2023-12-04T04:17:17;101247.38;;;1.44;90.23
72086;BME280;64750;52.134;5.424;2023-12-04T04:19:43;101247.38;;;1.44;89.65
72086;BME280;64750;52.134;5.424;2023-12-04T04:22:10;101240.47;;;1.43;89.57
72086;BME280;64750;52.134;5.424;2023-12-04T04:24:37;101240.47;;;1.43;89.93
72086;BME280;64750;52.134;5.424;2023-12-04T04:27:03;101239.66;;;1.43;89.47
72086;BME280;64750;52.134;5.424;2023-12-04T04:29:30;101237.94;;;1.42;89.49
72086;BME280;64750;52.134;5.424;2023-12-04T04:31:57;101230.13;;;1.43;89.13
72086;BME280;64750;52.134;5.424;2023-12-04T04:34:23;101230.13;;;1.43;88.88
72086;BME280;64750;52.134;5.424;2023-12-04T04:36:50;101213.75;;;1.43;89.45
72086;BME280;64750;52.134;5.424;2023-12-04T04:39:17;101217.16;;;1.43;88.77
72086;BME280;64750;52.134;5.424;2023-12-04T04:41:44;101220.66;;;1.41;88.59
72086;BME280;64750;52.134;5.424;2023-12-04T04:44:11;101226.69;;;1.43;89.21
72086;BME280;64750;52.134;5.424;2023-12-04T04:46:37;101221.50;;;1.43;89.37
72086;BME280;64750;52.134;5.424;2023-12-04T04:49:03;101221.50;;;1.43;88.97
72086;BME280;64750;52.134;5.424;2023-12-04T04:51:33;101218.91;;;1.43;89.02
72086;BME280;64750;52.134;5.424;2023-12-04T04:54:01;101219.75;;;1.43;88.55
72086;BME280;64750;52.134;5.424;2023-12-04T04:56:28;101218.88;;;1.44;88.63
72086;BME280;64750;52.134;5.424;2023-12-04T04:58:56;101216.38;;;1.41;89.18
72086;BME280;64750;52.134;5.424;2023-12-04T05:01:22;101217.19;;;1.42;89.00
72086;BME280;64750;52.134;5.424;2023-12-04T05:03:49;101220.66;;;1.41;88.81
72086;BME280;64750;52.134;5.424;2023-12-04T05:06:15;101215.50;;;1.41;88.28
72086;BME280;64750;52.134;5.424;2023-12-04T05:08:42;101211.22;;;1.40;89.03
72086;BME280;64750;52.134;5.424;2023-12-04T05:11:08;101208.63;;;1.40;88.33
72086;BME280;64750;52.134;5.424;2023-12-04T05:13:35;101207.75;;;1.39;88.43
72086;BME280;64750;52.134;5.424;2023-12-04T05:16:01;101210.31;;;1.41;88.84
72086;BME280;64750;52.134;5.424;2023-12-04T05:18:28;101206.00;;;1.41;88.88
72086;BME280;64750;52.134;5.424;2023-12-04T05:20:54;101189.63;;;1.39;88.31
72086;BME280;64750;52.134;5.424;2023-12-04T05:23:20;101191.38;;;1.39;88.29
72086;BME280;64750;52.134;5.424;2023-12-04T05:25:47;101193.97;;;1.39;88.16
72086;BME280;64750;52.134;5.424;2023-12-04T05:28:16;101187.91;;;1.40;88.16
72086;BME280;64750;52.134;5.424;2023-12-04T05:30:43;101191.38;;;1.39;88.21
72086;BME280;64750;52.134;5.424;2023-12-04T05:33:09;101189.66;;;1.38;87.67
72086;BME280;64750;52.134;5.424;2023-12-04T05:35:36;101194.75;;;1.41;88.13
72086;BME280;64750;52.134;5.424;2023-12-04T05:38:03;101186.19;;;1.39;88.04
72086;BME280;64750;52.134;5.424;2023-12-04T05:40:31;101176.69;;;1.38;88.58
72086;BME280;64750;52.134;5.424;2023-12-04T05:42:58;101174.16;;;1.36;88.31
72086;BME280;64750;52.134;5.424;2023-12-04T05:45:24;101166.41;;;1.35;88.04
72086;BME280;64750;52.134;5.424;2023-12-04T05:47:51;101161.22;;;1.35;87.79
72086;BME280;64750;52.134;5.424;2023-12-04T05:50:19;101151.69;;;1.37;87.71
72086;BME280;64750;52.134;5.424;2023-12-04T05:52:45;101156.00;;;1.36;88.25
72086;BME280;64750;52.134;5.424;2023-12-04T05:55:11;101156.84;;;1.37;88.36
72086;BME280;64750;52.134;5.424;2023-12-04T05:57:39;101149.97;;;1.36;87.96
72086;BME280;64750;52.134;5.424;2023-12-04T06:00:06;101152.56;;;1.36;87.88
72086;BME280;64750;52.134;5.424;2023-12-04T06:02:39;101155.13;;;1.36;87.75
72086;BME280;64750;52.134;5.424;2023-12-04T06:05:06;101148.28;;;1.35;87.60
72086;BME280;64750;52.134;5.424;2023-12-04T06:07:35;101152.56;;;1.36;87.35
72086;BME280;64750;52.134;5.424;2023-12-04T06:10:02;101143.91;;;1.37;87.55
72086;BME280;64750;52.134;5.424;2023-12-04T06:12:31;101141.31;;;1.37;87.36
72086;BME280;64750;52.134;5.424;2023-12-04T06:14:57;101145.63;;;1.38;87.59
72086;BME280;64750;52.134;5.424;2023-12-04T06:17:25;101149.94;;;1.39;87.61
72086;BME280;64750;52.134;5.424;2023-12-04T06:19:53;101143.06;;;1.36;87.68
72086;BME280;64750;52.134;5.424;2023-12-04T06:22:20;101137.88;;;1.36;87.41
72086;BME280;64750;52.134;5.424;2023-12-04T06:24:48;101145.63;;;1.38;87.63
72086;BME280;64750;52.134;5.424;2023-12-04T06:27:17;101143.91;;;1.37;87.30
72086;BME280;64750;52.134;5.424;2023-12-04T06:29:47;101142.16;;;1.39;87.28
72086;BME280;64750;52.134;5.424;2023-12-04T06:32:18;101136.13;;;1.37;87.29
72086;BME280;64750;52.134;5.424;2023-12-04T06:34:45;101139.59;;;1.37;87.19
72086;BME280;64750;52.134;5.424;2023-12-04T06:37:12;101126.66;;;1.37;87.10
72086;BME280;64750;52.134;5.424;2023-12-04T06:39:40;101127.56;;;1.35;87.07
72086;BME280;64750;52.134;5.424;2023-12-04T06:42:07;101119.75;;;1.36;86.85
72086;BME280;64750;52.134;5.424;2023-12-04T06:44:35;101119.75;;;1.36;86.72
72086;BME280;64750;52.134;5.424;2023-12-04T06:47:02;101118.00;;;1.37;86.67
72086;BME280;64750;52.134;5.424;2023-12-04T06:49:30;101111.94;;;1.38;86.40
72086;BME280;64750;52.134;5.424;2023-12-04T06:51:58;101107.69;;;1.35;86.82
72086;BME280;64750;52.134;5.424;2023-12-04T06:54:26;101101.63;;;1.36;86.20
72086;BME280;64750;52.134;5.424;2023-12-04T06:56:52;101097.25;;;1.38;85.79
72086;BME280;64750;52.134;5.424;2023-12-04T06:59:19;101092.09;;;1.37;86.40
72086;BME280;64750;52.134;5.424;2023-12-04T07:01:46;101099.03;;;1.36;85.74
72086;BME280;64750;52.134;5.424;2023-12-04T07:04:13;101086.94;;;1.37;86.33
72086;BME280;64750;52.134;5.424;2023-12-04T07:06:40;101085.22;;;1.36;85.77
72086;BME280;64750;52.134;5.424;2023-12-04T07:09:07;101093.88;;;1.35;86.02
72086;BME280;64750;52.134;5.424;2023-12-04T07:11:36;101090.47;;;1.33;85.68
72086;BME280;64750;52.134;5.424;2023-12-04T07:14:03;101079.22;;;1.34;85.80
72086;BME280;64750;52.134;5.424;2023-12-04T07:16:29;101080.06;;;1.34;85.47
72086;BME280;64750;52.134;5.424;2023-12-04T07:18:56;101067.09;;;1.36;85.41
72086;BME280;64750;52.134;5.424;2023-12-04T07:21:23;101068.81;;;1.37;85.80
72086;BME280;64750;52.134;5.424;2023-12-04T07:23:50;101067.09;;;1.36;84.95
72086;BME280;64750;52.134;5.424;2023-12-04T07:26:16;101061.00;;;1.38;85.23
72086;BME280;64750;52.134;5.424;2023-12-04T07:28:42;101064.47;;;1.39;85.38
72086;BME280;64750;52.134;5.424;2023-12-04T07:31:09;101070.44;;;1.41;85.36
72086;BME280;64750;52.134;5.424;2023-12-04T07:33:36;101069.63;;;1.39;85.05
72086;BME280;64750;52.134;5.424;2023-12-04T07:36:03;101064.47;;;1.39;84.67
72086;BME280;64750;52.134;5.424;2023-12-04T07:38:29;101065.25;;;1.41;85.35
72086;BME280;64750;52.134;5.424;2023-12-04T07:40:56;101066.13;;;1.41;85.19
72086;BME280;64750;52.134;5.424;2023-12-04T07:43:22;101065.25;;;1.41;84.62
72086;BME280;64750;52.134;5.424;2023-12-04T07:45:49;101070.41;;;1.44;85.29
72086;BME280;64750;52.134;5.424;2023-12-04T07:48:15;101078.16;;;1.45;84.74
72086;BME280;64750;52.134;5.424;2023-12-04T07:50:43;101067.81;;;1.44;84.58
72086;BME280;64750;52.134;5.424;2023-12-04T07:53:09;101061.75;;;1.45;84.77
72086;BME280;64750;52.134;5.424;2023-12-04T07:55:38;101065.19;;;1.45;84.37
72086;BME280;64750;52.134;5.424;2023-12-04T07:58:04;101055.66;;;1.46;84.17
72086;BME280;64750;52.134;5.424;2023-12-04T08:00:34;101057.47;;;1.44;84.06
72086;BME280;64750;52.134;5.424;2023-12-04T08:03:01;101053.13;;;1.44;83.98
72086;BME280;64750;52.134;5.424;2023-12-04T08:05:27;101059.13;;;1.46;83.97
72086;BME280;64750;52.134;5.424;2023-12-04T08:07:54;101053.09;;;1.46;83.84
72086;BME280;64750;52.134;5.424;2023-12-04T08:10:21;101060.84;;;1.46;84.37
72086;BME280;64750;52.134;5.424;2023-12-04T08:12:49;101053.97;;;1.46;83.23
72086;BME280;64750;52.134;5.424;2023-12-04T08:15:15;101061.75;;;1.45;83.34
72086;BME280;64750;52.134;5.424;2023-12-04T08:17:42;101059.16;;;1.45;83.53
72086;BME280;64750;52.134;5.424;2023-12-04T08:20:09;101066.06;;;1.44;82.86
72086;BME280;64750;52.134;5.424;2023-12-04T08:22:49;101066.94;;;1.45;82.89
72086;BME280;64750;52.134;5.424;2023-12-04T08:25:16;101071.25;;;1.44;82.63
72086;BME280;64750;52.134;5.424;2023-12-04T08:27:42;101071.28;;;1.43;82.55
72086;BME280;64750;52.134;5.424;2023-12-04T08:30:09;101071.28;;;1.43;81.89
72086;BME280;64750;52.134;5.424;2023-12-04T08:32:35;101056.59;;;1.43;82.27
72086;BME280;64750;52.134;5.424;2023-12-04T08:35:02;101054.88;;;1.44;82.26
72086;BME280;64750;52.134;5.424;2023-12-04T08:37:30;101056.59;;;1.45;82.34
72086;BME280;64750;52.134;5.424;2023-12-04T08:39:57;101048.81;;;1.45;82.32
72086;BME280;64750;52.134;5.424;2023-12-04T08:42:23;101049.69;;;1.44;81.97
72086;BME280;64750;52.134;5.424;2023-12-04T08:44:50;101044.50;;;1.44;81.45
72086;BME280;64750;52.134;5.424;2023-12-04T08:47:16;101043.63;;;1.45;81.59
72086;BME280;64750;52.134;5.424;2023-12-04T08:49:43;101028.06;;;1.46;81.79
72086;BME280;64750;52.134;5.424;2023-12-04T08:52:14;101038.41;;;1.46;81.17
72086;BME280;64750;52.134;5.424;2023-12-04T08:54:41;101029.78;;;1.46;81.56
72086;BME280;64750;52.134;5.424;2023-12-04T08:57:08;101023.72;;;1.47;81.22
72086;BME280;64750;52.134;5.424;2023-12-04T08:59:36;101024.59;;;1.47;80.69
72086;BME280;64750;52.134;5.424;2023-12-04T09:02:02;101030.59;;;1.48;81.13
72086;BME280;64750;52.134;5.424;2023-12-04T09:04:33;101032.31;;;1.49;81.08
72086;BME280;64750;52.134;5.424;2023-12-04T09:07:00;101027.97;;;1.50;80.96
72086;BME280;64750;52.134;5.424;2023-12-04T09:09:46;101011.56;;;1.51;80.46
72086;BME280;64750;52.134;5.424;2023-12-04T09:12:13;101008.06;;;1.53;80.87
72086;BME280;64750;52.134;5.424;2023-12-04T09:14:40;101009.78;;;1.54;81.03
72086;BME280;64750;52.134;5.424;2023-12-04T09:17:07;101010.56;;;1.56;80.52
72086;BME280;64750;52.134;5.424;2023-12-04T09:19:34;101008.91;;;1.54;80.48
72086;BME280;64750;52.134;5.424;2023-12-04T09:22:01;101007.19;;;1.54;79.85
72086;BME280;64750;52.134;5.424;2023-12-04T09:24:42;101011.47;;;1.55;80.36
72086;BME280;64750;52.134;5.424;2023-12-04T09:27:08;100999.41;;;1.54;79.40
72086;BME280;64750;52.134;5.424;2023-12-04T09:29:35;101001.97;;;1.56;79.84
72086;BME280;64750;52.134;5.424;2023-12-04T09:32:02;101000.22;;;1.58;79.45
72086;BME280;64750;52.134;5.424;2023-12-04T09:34:29;101001.88;;;1.59;80.11
72086;BME280;64750;52.134;5.424;2023-12-04T09:36:55;101006.19;;;1.60;79.19
72086;BME280;64750;52.134;5.424;2023-12-04T09:39:33;101004.47;;;1.60;78.88
72086;BME280;64750;52.134;5.424;2023-12-04T09:42:01;100998.38;;;1.61;78.70
72086;BME280;64750;52.134;5.424;2023-12-04T09:44:28;101002.69;;;1.62;78.65
72086;BME280;64750;52.134;5.424;2023-12-04T09:46:55;100999.22;;;1.63;78.44
72086;BME280;64750;52.134;5.424;2023-12-04T09:49:22;101002.63;;;1.66;79.12
72086;BME280;64750;52.134;5.424;2023-12-04T09:51:50;100993.13;;;1.66;78.79
72086;BME280;64750;52.134;5.424;2023-12-04T09:54:17;100994.81;;;1.67;78.72
72086;BME280;64750;52.134;5.424;2023-12-04T09:56:44;100990.50;;;1.68;78.59
72086;BME280;64750;52.134;5.424;2023-12-04T09:59:13;100994.78;;;1.69;78.50
72086;BME280;64750;52.134;5.424;2023-12-04T10:01:40;100986.13;;;1.70;78.13
72086;BME280;64750;52.134;5.424;2023-12-04T10:04:07;100989.53;;;1.72;78.31
72086;BME280;64750;52.134;5.424;2023-12-04T10:06:36;100985.22;;;1.72;77.70
72086;BME280;64750;52.134;5.424;2023-12-04T10:09:03;100982.63;;;1.72;77.58
72086;BME280;64750;52.134;5.424;2023-12-04T10:11:31;100970.47;;;1.74;77.64
72086;BME280;64750;52.134;5.424;2023-12-04T10:13:57;100973.06;;;1.76;78.06
72086;BME280;64750;52.134;5.424;2023-12-04T10:16:36;100974.78;;;1.77;77.90
72086;BME280;64750;52.134;5.424;2023-12-04T10:19:25;100964.31;;;1.80;77.34
72086;BME280;64750;52.134;5.424;2023-12-04T10:21:57;100954.78;;;1.80;77.30
72086;BME280;64750;52.134;5.424;2023-12-04T10:24:32;100952.19;;;1.82;76.98
72086;BME280;64750;52.134;5.424;2023-12-04T10:27:07;100951.28;;;1.83;77.14
72086;BME280;64750;52.134;5.424;2023-12-04T10:29:44;100941.75;;;1.85;76.74
72086;BME280;64750;52.134;5.424;2023-12-04T10:32:11;100946.88;;;1.87;76.82
72086;BME280;64750;52.134;5.424;2023-12-04T10:34:40;100935.66;;;1.88;76.41
72086;BME280;64750;52.134;5.424;2023-12-04T10:37:09;100931.31;;;1.88;76.82
72086;BME280;64750;52.134;5.424;2023-12-04T10:39:48;100924.34;;;1.90;76.73
72086;BME280;64750;52.134;5.424;2023-12-04T10:42:26;100921.72;;;1.92;76.31
72086;BME280;64750;52.134;5.424;2023-12-04T10:44:56;100925.19;;;1.92;76.69
72086;BME280;64750;52.134;5.424;2023-12-04T10:47:23;100913.91;;;1.93;76.63
72086;BME280;64750;52.134;5.424;2023-12-04T10:49:50;100909.59;;;1.94;76.69
72086;BME280;64750;52.134;5.424;2023-12-04T10:52:18;100910.44;;;1.94;76.46
72086;BME280;64750;52.134;5.424;2023-12-04T10:54:48;100902.66;;;1.94;76.25
72086;BME280;64750;52.134;5.424;2023-12-04T10:57:26;100900.03;;;1.96;76.24
72086;BME280;64750;52.134;5.424;2023-12-04T10:59:58;100890.53;;;1.96;76.31
72086;BME280;64750;52.134;5.424;2023-12-04T11:02:28;100893.13;;;1.96;76.40
72086;BME280;64750;52.134;5.424;2023-12-04T11:05:00;100888.72;;;1.99;76.66
72086;BME280;64750;52.134;5.424;2023-12-04T11:07:30;100879.22;;;1.99;76.23
72086;BME280;64750;52.134;5.424;2023-12-04T11:10:23;100873.16;;;2.00;76.60
72086;BME280;64750;52.134;5.424;2023-12-04T11:13:22;100870.53;;;2.02;75.95
72086;BME280;64750;52.134;5.424;2023-12-04T11:15:52;100856.69;;;2.03;76.32
72086;BME280;64750;52.134;5.424;2023-12-04T11:18:22;100866.13;;;2.04;76.33
72086;BME280;64750;52.134;5.424;2023-12-04T11:21:04;100853.19;;;2.04;76.72
72086;BME280;64750;52.134;5.424;2023-12-04T11:23:33;100854.03;;;2.04;76.43
72086;BME280;64750;52.134;5.424;2023-12-04T11:26:01;100848.81;;;2.06;76.75
72086;BME280;64750;52.134;5.424;2023-12-04T11:28:30;100841.03;;;2.06;75.75
72086;BME280;64750;52.134;5.424;2023-12-04T11:30:57;100834.13;;;2.05;75.82
72086;BME280;64750;52.134;5.424;2023-12-04T11:33:24;100832.38;;;2.07;75.92
72086;BME280;64750;52.134;5.424;2023-12-04T11:35:51;100837.56;;;2.07;75.91
72086;BME280;64750;52.134;5.424;2023-12-04T11:38:18;100832.38;;;2.07;76.17
72086;BME280;64750;52.134;5.424;2023-12-04T11:40:46;100828.84;;;2.09;75.99
72086;BME280;64750;52.134;5.424;2023-12-04T11:43:24;100827.97;;;2.10;76.29
72086;BME280;64750;52.134;5.424;2023-12-04T11:45:52;100825.38;;;2.10;75.99
72086;BME280;64750;52.134;5.424;2023-12-04T11:48:25;100825.34;;;2.12;76.51
72086;BME280;64750;52.134;5.424;2023-12-04T11:50:52;100827.94;;;2.12;76.75
72086;BME280;64750;52.134;5.424;2023-12-04T11:53:18;100820.16;;;2.12;76.03
72086;BME280;64750;52.134;5.424;2023-12-04T11:55:45;100828.75;;;2.12;76.46
72086;BME280;64750;52.134;5.424;2023-12-04T11:58:12;100814.09;;;2.11;76.29
72086;BME280;64750;52.134;5.424;2023-12-04T12:00:41;100811.53;;;2.10;76.03
72086;BME280;64750;52.134;5.424;2023-12-04T12:03:08;100814.97;;;2.12;75.95
72086;BME280;64750;52.134;5.424;2023-12-04T12:05:49;100813.25;;;2.11;76.36
72086;BME280;64750;52.134;5.424;2023-12-04T12:08:17;100804.59;;;2.12;76.08
72086;BME280;64750;52.134;5.424;2023-12-04T12:10:44;100801.13;;;2.11;76.56
72086;BME280;64750;52.134;5.424;2023-12-04T12:13:12;100795.94;;;2.13;76.73
72086;BME280;64750;52.134;5.424;2023-12-04T12:15:38;100796.75;;;2.13;76.54
72086;BME280;64750;52.134;5.424;2023-12-04T12:18:08;100796.72;;;2.15;76.83
72086;BME280;64750;52.134;5.424;2023-12-04T12:20:37;100788.09;;;2.15;77.08
72086;BME280;64750;52.134;5.424;2023-12-04T12:23:04;100783.75;;;2.15;76.75
72086;BME280;64750;52.134;5.424;2023-12-04T12:25:32;100790.66;;;2.16;76.79
72086;BME280;64750;52.134;5.424;2023-12-04T12:28:02;100788.00;;;2.18;77.20
72086;BME280;64750;52.134;5.424;2023-12-04T12:30:28;100776.81;;;2.17;77.25
72086;BME280;64750;52.134;5.424;2023-12-04T12:32:55;100776.75;;;2.19;77.37
72086;BME280;64750;52.134;5.424;2023-12-04T12:35:22;100781.06;;;2.20;77.58
72086;BME280;64750;52.134;5.424;2023-12-04T12:37:50;100779.31;;;2.20;77.43
72086;BME280;64750;52.134;5.424;2023-12-04T12:40:20;100774.13;;;2.20;77.41
72086;BME280;64750;52.134;5.424;2023-12-04T12:42:47;100768.03;;;2.21;77.45
72086;BME280;64750;52.134;5.424;2023-12-04T12:45:15;100768.03;;;2.21;77.14
72086;BME280;64750;52.134;5.424;2023-12-04T12:47:44;100758.53;;;2.22;77.42
72086;BME280;64750;52.134;5.424;2023-12-04T12:50:11;100747.28;;;2.21;77.02
72086;BME280;64750;52.134;5.424;2023-12-04T12:52:40;100749.84;;;2.23;77.68
72086;BME280;64750;52.134;5.424;2023-12-04T12:55:07;100733.44;;;2.22;77.30
72086;BME280;64750;52.134;5.424;2023-12-04T12:57:34;100731.69;;;2.23;77.64
72086;BME280;64750;52.134;5.424;2023-12-04T13:00:00;100724.78;;;2.23;77.93
72086;BME280;64750;52.134;5.424;2023-12-04T13:02:27;100719.59;;;2.23;77.56
72086;BME280;64750;52.134;5.424;2023-12-04T13:04:55;100715.25;;;2.24;77.29